Time;durP1;ratioP1;P1;durP2;ratioP2;P2;SDS_P1;SDS_P2;PMS_P1;PMS_P2;Temp;Humidity;BMP_temperature;BMP_pressure;BME280_temperature;BME280_humidity;BME280_pressure;Samples;Min_cycle;Max_cycle;Signal;HPM_P1;HPM_P2
2022/07/06 00:02:10;;;;;;;4.17;2.97;;;;;;;;;;5050135;28;20520;-75
2022/07/06 00:04:37;;;;;;;4.50;3.50;;;;;;;;;;5049598;28;20575;-74
2022/07/06 00:07:04;;;;;;;3.30;2.90;;;;;;;;;;5049804;28;20445;-75
2022/07/06 00:09:31;;;;;;;3.20;3.00;;;;;;;;;;5049749;28;20481;-76
2022/07/06 00:11:58;;;;;;;3.17;2.97;;;;;;;;;;5053651;28;20496;-75
2022/07/06 00:14:25;;;;;;;3.27;2.97;;;;;;;;;;5053479;28;20440;-75
2022/07/06 00:16:52;;;;;;;6.87;3.10;;;;;;;;;;5053631;28;20883;-75
2022/07/06 00:19:21;;;;;;;4.03;3.73;;;;;;;;;;5053728;28;20519;-76
2022/07/06 00:21:48;;;;;;;2.70;2.53;;;;;;;;;;5058003;28;20464;-77
2022/07/06 00:24:17;;;;;;;3.90;2.90;;;;;;;;;;5079071;28;20470;-76
2022/07/06 00:26:44;;;;;;;3.60;2.80;;;;;;;;;;5082592;28;20477;-76
2022/07/06 00:29:11;;;;;;;3.33;3.13;;;;;;;;;;5087719;28;20472;-75
2022/07/06 00:31:39;;;;;;;4.40;3.30;;;;;;;;;;5082821;28;20453;-75
2022/07/06 00:34:05;;;;;;;3.80;3.50;;;;;;;;;;5073993;28;20448;-75
2022/07/06 00:36:34;;;;;;;4.23;3.20;;;;;;;;;;5073793;28;20521;-75
2022/07/06 00:39:01;;;;;;;3.43;3.23;;;;;;;;;;5073561;28;20417;-76
2022/07/06 00:41:28;;;;;;;3.90;3.37;;;;;;;;;;5073425;28;20457;-75
2022/07/06 00:43:56;;;;;;;3.87;3.47;;;;;;;;;;5073404;28;20474;-75
2022/07/06 00:46:24;;;;;;;3.10;2.90;;;;;;;;;;5073685;28;20436;-76
2022/07/06 00:48:51;;;;;;;3.50;3.30;;;;;;;;;;5073144;28;20991;-75
2022/07/06 00:51:19;;;;;;;3.30;3.10;;;;;;;;;;5073154;28;20460;-75
2022/07/06 00:53:47;;;;;;;6.03;3.67;;;;;;;;;;5073032;28;21338;-75
2022/07/06 00:56:14;;;;;;;3.20;3.00;;;;;;;;;;5073436;28;20490;-75
2022/07/06 00:58:41;;;;;;;4.00;3.70;;;;;;;;;;5073575;28;20436;-76
2022/07/06 01:01:08;;;;;;;3.37;3.17;;;;;;;;;;5073472;28;20787;-76
2022/07/06 01:03:36;;;;;;;3.10;2.90;;;;;;;;;;5073120;28;20437;-74
2022/07/06 01:06:04;;;;;;;5.00;3.43;;;;;;;;;;5073226;28;20948;-75
2022/07/06 01:08:31;;;;;;;4.73;3.37;;;;;;;;;;5072828;28;20888;-75
2022/07/06 01:11:00;;;;;;;3.37;3.17;;;;;;;;;;5073426;28;20440;-75
2022/07/06 01:13:27;;;;;;;3.50;3.20;;;;;;;;;;5072662;28;20437;-74
2022/07/06 01:15:54;;;;;;;4.50;3.30;;;;;;;;;;5073259;28;20525;-74
2022/07/06 01:18:22;;;;;;;4.20;3.30;;;;;;;;;;5073108;28;20793;-75
2022/07/06 01:20:50;;;;;;;6.23;3.00;;;;;;;;;;5072711;28;20850;-75
2022/07/06 01:23:17;;;;;;;3.40;3.20;;;;;;;;;;5072172;28;20507;-75
2022/07/06 01:25:44;;;;;;;3.23;3.03;;;;;;;;;;5071850;28;20921;-76
2022/07/06 01:28:11;;;;;;;4.23;2.90;;;;;;;;;;5059181;28;20573;-75
2022/07/06 01:30:38;;;;;;;2.90;2.70;;;;;;;;;;5073136;28;20471;-77
2022/07/06 01:33:05;;;;;;;4.57;2.97;;;;;;;;;;5072329;28;20578;-75
2022/07/06 01:35:33;;;;;;;6.43;3.40;;;;;;;;;;5078677;28;20485;-75
2022/07/06 01:38:01;;;;;;;3.80;3.20;;;;;;;;;;5085452;28;20448;-75
2022/07/06 01:40:28;;;;;;;2.77;2.67;;;;;;;;;;5083353;28;20672;-74
2022/07/06 01:42:55;;;;;;;4.03;3.13;;;;;;;;;;5082730;28;20507;-75
2022/07/06 01:45:22;;;;;;;3.33;3.13;;;;;;;;;;5084180;28;20453;-74
2022/07/06 01:47:49;;;;;;;3.40;2.77;;;;;;;;;;5083468;28;20448;-75
2022/07/06 01:50:16;;;;;;;3.90;3.20;;;;;;;;;;5072566;28;20480;-75
2022/07/06 01:52:43;;;;;;;3.40;3.10;;;;;;;;;;5071968;28;20599;-76
2022/07/06 01:55:12;;;;;;;3.80;3.27;;;;;;;;;;5072550;28;20440;-75
2022/07/06 01:57:39;;;;;;;3.60;3.30;;;;;;;;;;5072277;28;20445;-75
2022/07/06 02:00:07;;;;;;;3.17;2.80;;;;;;;;;;5072190;28;20436;-75
2022/07/06 02:02:34;;;;;;;3.10;2.90;;;;;;;;;;5071732;28;20468;-76
2022/07/06 02:05:01;;;;;;;3.30;3.20;;;;;;;;;;5072362;28;20440;-74
2022/07/06 02:07:28;;;;;;;3.33;3.03;;;;;;;;;;5072366;28;20487;-75
2022/07/06 02:09:55;;;;;;;3.00;2.80;;;;;;;;;;5056812;28;20555;-75
2022/07/06 02:12:23;;;;;;;3.60;3.30;;;;;;;;;;5051739;28;20461;-76
2022/07/06 02:14:50;;;;;;;3.43;3.10;;;;;;;;;;5051635;28;20505;-75
2022/07/06 02:17:17;;;;;;;3.27;2.97;;;;;;;;;;5052847;28;20495;-74
2022/07/06 02:19:44;;;;;;;3.43;3.00;;;;;;;;;;5052768;28;21088;-76
2022/07/06 02:22:11;;;;;;;5.93;3.87;;;;;;;;;;5052901;28;20465;-74
2022/07/06 02:24:38;;;;;;;3.43;3.20;;;;;;;;;;5052546;28;20948;-75
2022/07/06 02:27:05;;;;;;;4.80;3.00;;;;;;;;;;5051779;28;20446;-76
2022/07/06 02:29:34;;;;;;;3.90;3.57;;;;;;;;;;5051586;28;20537;-75
2022/07/06 02:32:01;;;;;;;3.57;3.37;;;;;;;;;;5051535;28;20469;-74
2022/07/06 02:34:28;;;;;;;3.23;3.03;;;;;;;;;;5050962;28;20453;-75
2022/07/06 02:36:55;;;;;;;3.43;3.13;;;;;;;;;;5051142;28;20442;-76
2022/07/06 02:39:22;;;;;;;3.97;3.67;;;;;;;;;;5050890;28;20488;-75
2022/07/06 02:41:49;;;;;;;9.67;3.83;;;;;;;;;;5051309;28;20523;-75
2022/07/06 02:44:16;;;;;;;3.60;3.30;;;;;;;;;;5051655;28;20507;-75
2022/07/06 02:46:44;;;;;;;4.07;3.70;;;;;;;;;;5060264;28;20449;-75
2022/07/06 02:49:11;;;;;;;4.37;4.07;;;;;;;;;;5060703;28;20477;-76
2022/07/06 02:51:38;;;;;;;5.40;4.13;;;;;;;;;;5051275;28;20889;-74
2022/07/06 02:54:05;;;;;;;4.03;3.73;;;;;;;;;;5050973;28;20440;-74
2022/07/06 02:56:32;;;;;;;4.43;3.37;;;;;;;;;;5050893;28;20450;-74
2022/07/06 02:58:59;;;;;;;3.90;3.60;;;;;;;;;;5051035;28;20445;-74
2022/07/06 03:01:26;;;;;;;4.27;3.87;;;;;;;;;;5051060;28;20469;-74
2022/07/06 03:03:55;;;;;;;4.03;3.67;;;;;;;;;;5050677;28;20449;-74
2022/07/06 03:06:22;;;;;;;3.87;3.57;;;;;;;;;;5050853;28;20941;-74
2022/07/06 03:08:49;;;;;;;4.47;4.17;;;;;;;;;;5050893;28;20473;-75
2022/07/06 03:11:16;;;;;;;3.70;3.40;;;;;;;;;;5050591;28;21216;-75
2022/07/06 03:13:43;;;;;;;3.70;3.40;;;;;;;;;;5050939;28;20446;-74
2022/07/06 03:16:10;;;;;;;4.50;4.10;;;;;;;;;;5050886;28;20470;-74
2022/07/06 03:18:37;;;;;;;4.10;3.80;;;;;;;;;;5050563;28;21053;-74
2022/07/06 03:21:06;;;;;;;4.97;4.57;;;;;;;;;;5050529;28;20438;-74
2022/07/06 03:23:33;;;;;;;3.63;3.43;;;;;;;;;;5050540;28;20445;-75
2022/07/06 03:26:00;;;;;;;4.70;3.87;;;;;;;;;;5050851;28;20848;-74
2022/07/06 03:28:27;;;;;;;5.00;4.70;;;;;;;;;;5051990;28;20441;-73
2022/07/06 03:30:54;;;;;;;4.00;3.67;;;;;;;;;;5064022;28;20507;-74
2022/07/06 03:33:21;;;;;;;5.73;3.97;;;;;;;;;;5059970;28;20501;-74
2022/07/06 03:35:48;;;;;;;4.43;3.80;;;;;;;;;;5069108;28;20448;-73
2022/07/06 03:38:16;;;;;;;4.27;3.97;;;;;;;;;;5070370;28;20440;-75
2022/07/06 03:40:43;;;;;;;3.83;3.53;;;;;;;;;;5070686;28;20479;-74
2022/07/06 03:43:10;;;;;;;6.43;4.70;;;;;;;;;;5070052;28;20540;-74
2022/07/06 03:45:37;;;;;;;4.60;4.20;;;;;;;;;;5069991;28;20514;-74
2022/07/06 03:48:04;;;;;;;4.60;4.30;;;;;;;;;;5070435;28;20444;-75
2022/07/06 03:50:31;;;;;;;4.40;4.03;;;;;;;;;;5070479;28;20494;-74
2022/07/06 03:52:58;;;;;;;4.43;3.90;;;;;;;;;;5069877;28;20465;-75
2022/07/06 03:55:27;;;;;;;5.23;4.03;;;;;;;;;;5070265;28;20554;-75
2022/07/06 03:57:54;;;;;;;5.40;4.57;;;;;;;;;;5070231;28;20455;-75
2022/07/06 04:00:21;;;;;;;5.30;4.60;;;;;;;;;;5070088;28;20433;-75
2022/07/06 04:02:48;;;;;;;3.97;3.67;;;;;;;;;;5070103;28;20461;-75
2022/07/06 04:05:17;;;;;;;5.07;4.00;;;;;;;;;;5070004;28;20506;-75
2022/07/06 04:07:44;;;;;;;4.33;4.03;;;;;;;;;;5062785;28;20440;-75
2022/07/06 04:10:11;;;;;;;4.90;4.50;;;;;;;;;;5062533;28;20476;-75
2022/07/06 04:12:43;;;;;;;4.83;4.53;;;;;;;;;;5051176;28;20519;-76
2022/07/06 04:15:10;;;;;;;4.20;4.00;;;;;;;;;;5059669;28;20452;-75
2022/07/06 04:17:53;;;;;;;4.57;4.20;;;;;;;;;;5070043;28;20437;-75
2022/07/06 04:20:20;;;;;;;7.00;5.67;;;;;;;;;;5069860;28;20440;-75
2022/07/06 04:22:47;;;;;;;6.00;5.50;;;;;;;;;;5058077;28;20458;-76
2022/07/06 04:25:14;;;;;;;5.77;5.33;;;;;;;;;;5051952;28;20921;-76
2022/07/06 04:27:43;;;;;;;5.67;5.20;;;;;;;;;;5069924;28;20441;-75
2022/07/06 04:30:10;;;;;;;4.87;4.57;;;;;;;;;;5069886;28;20483;-76
2022/07/06 04:32:38;;;;;;;5.60;5.20;;;;;;;;;;5069837;28;20494;-76
2022/07/06 04:35:06;;;;;;;5.40;5.00;;;;;;;;;;5069848;28;20451;-76
2022/07/06 04:37:33;;;;;;;5.20;4.80;;;;;;;;;;5069754;28;20501;-75
2022/07/06 04:40:00;;;;;;;6.50;5.30;;;;;;;;;;5069796;28;20513;-76
2022/07/06 04:42:27;;;;;;;10.83;5.90;;;;;;;;;;5069407;28;20472;-75
2022/07/06 04:44:55;;;;;;;5.43;5.03;;;;;;;;;;5069560;28;20444;-76
2022/07/06 04:47:22;;;;;;;6.00;5.57;;;;;;;;;;5069655;28;20962;-74
2022/07/06 04:49:49;;;;;;;6.07;5.53;;;;;;;;;;5069901;28;20473;-74
2022/07/06 04:52:16;;;;;;;6.00;5.50;;;;;;;;;;5069333;28;20464;-76
2022/07/06 04:54:43;;;;;;;5.83;5.33;;;;;;;;;;5069285;28;20474;-75
2022/07/06 04:57:10;;;;;;;6.33;5.60;;;;;;;;;;5070713;28;20820;-75
2022/07/06 04:59:37;;;;;;;6.40;5.80;;;;;;;;;;5072948;28;20466;-75
2022/07/06 05:02:05;;;;;;;6.23;5.73;;;;;;;;;;5073146;28;21021;-75
2022/07/06 05:04:33;;;;;;;5.90;5.40;;;;;;;;;;5072711;28;20866;-75
2022/07/06 05:07:00;;;;;;;6.57;6.00;;;;;;;;;;5073112;28;20444;-75
2022/07/06 05:09:27;;;;;;;6.23;5.70;;;;;;;;;;5072617;28;20476;-76
2022/07/06 05:11:54;;;;;;;6.63;5.90;;;;;;;;;;5072494;28;21037;-75
2022/07/06 05:14:21;;;;;;;6.47;5.87;;;;;;;;;;5072659;28;20486;-75
2022/07/06 05:16:48;;;;;;;6.20;5.60;;;;;;;;;;5072837;28;20494;-75
2022/07/06 05:19:16;;;;;;;6.27;5.73;;;;;;;;;;5072636;28;20456;-74
2022/07/06 05:21:43;;;;;;;5.90;5.50;;;;;;;;;;5072477;28;21025;-74
2022/07/06 05:24:10;;;;;;;6.37;5.80;;;;;;;;;;5072235;28;20444;-76
2022/07/06 05:26:37;;;;;;;5.87;5.37;;;;;;;;;;5072870;28;20440;-75
2022/07/06 05:29:04;;;;;;;6.60;6.10;;;;;;;;;;5072781;28;20519;-76
2022/07/06 05:31:31;;;;;;;6.43;5.70;;;;;;;;;;5072615;28;20484;-76
2022/07/06 05:33:58;;;;;;;6.43;5.93;;;;;;;;;;5071951;28;20994;-76
2022/07/06 05:36:26;;;;;;;6.00;5.50;;;;;;;;;;5056389;28;20468;-75
2022/07/06 05:38:53;;;;;;;5.10;4.70;;;;;;;;;;5071048;28;20867;-76
2022/07/06 05:41:20;;;;;;;6.03;5.43;;;;;;;;;;5072073;28;20879;-75
2022/07/06 05:43:47;;;;;;;5.70;5.30;;;;;;;;;;5071712;28;20440;-75
2022/07/06 05:46:14;;;;;;;5.33;4.83;;;;;;;;;;5072245;28;20471;-75
2022/07/06 05:51:27;;;;;;;5.57;5.20;;;;;;;;;;5071567;28;21034;-76
2022/07/06 05:53:54;;;;;;;5.30;4.80;;;;;;;;;;5071390;28;20494;-75
2022/07/06 05:56:21;;;;;;;6.07;5.57;;;;;;;;;;5071949;28;20510;-76
2022/07/06 05:58:48;;;;;;;5.90;5.27;;;;;;;;;;5072267;28;20960;-76
2022/07/06 06:01:15;;;;;;;6.67;6.20;;;;;;;;;;5072486;28;20487;-76
2022/07/06 06:03:42;;;;;;;11.73;6.77;;;;;;;;;;5072215;28;20502;-76
2022/07/06 06:06:09;;;;;;;6.30;5.70;;;;;;;;;;5072855;28;20433;-76
2022/07/06 06:08:38;;;;;;;6.03;5.50;;;;;;;;;;5067029;28;20524;-75
2022/07/06 06:11:05;;;;;;;6.53;6.00;;;;;;;;;;5052137;28;20535;-75
2022/07/06 06:13:32;;;;;;;5.33;4.90;;;;;;;;;;5051669;28;20441;-76
2022/07/06 06:15:59;;;;;;;5.87;5.23;;;;;;;;;;5052217;28;20441;-78
2022/07/06 06:18:26;;;;;;;5.87;5.23;;;;;;;;;;5051689;28;20865;-76
2022/07/06 06:20:53;;;;;;;4.90;4.40;;;;;;;;;;5052711;28;20483;-76
2022/07/06 06:23:21;;;;;;;4.77;4.43;;;;;;;;;;5052606;28;20466;-76
2022/07/06 06:25:49;;;;;;;5.97;4.90;;;;;;;;;;5050771;28;20503;-77
2022/07/06 06:28:16;;;;;;;5.43;4.93;;;;;;;;;;5047692;28;20438;-77
2022/07/06 06:30:44;;;;;;;5.37;4.87;;;;;;;;;;5073748;28;20472;-76
2022/07/06 06:33:11;;;;;;;5.50;5.00;;;;;;;;;;5080076;28;20452;-76
2022/07/06 06:35:39;;;;;;;5.13;4.63;;;;;;;;;;5078337;28;20498;-77
2022/07/06 06:38:06;;;;;;;4.97;4.67;;;;;;;;;;5072864;28;20513;-77
2022/07/06 06:40:33;;;;;;;4.97;4.57;;;;;;;;;;5073463;28;20436;-75
2022/07/06 06:43:01;;;;;;;4.63;4.17;;;;;;;;;;5076363;28;20461;-77
2022/07/06 06:45:28;;;;;;;4.87;4.40;;;;;;;;;;5076405;28;21134;-76
2022/07/06 06:47:55;;;;;;;6.50;4.57;;;;;;;;;;5075527;28;20443;-77
2022/07/06 06:50:23;;;;;;;5.63;4.70;;;;;;;;;;5071928;28;21011;-76
2022/07/06 06:52:50;;;;;;;4.70;4.40;;;;;;;;;;5071456;28;20464;-75
2022/07/06 06:55:17;;;;;;;5.00;4.50;;;;;;;;;;5071684;28;20440;-76
2022/07/06 06:57:44;;;;;;;5.63;4.70;;;;;;;;;;5071198;28;20456;-76
2022/07/06 07:00:14;;;;;;;4.77;4.37;;;;;;;;;;5071210;28;20959;-77
2022/07/06 07:02:41;;;;;;;4.90;4.50;;;;;;;;;;5070895;28;20510;-76
2022/07/06 07:05:08;;;;;;;5.20;4.70;;;;;;;;;;5071449;28;20441;-75
2022/07/06 07:07:36;;;;;;;12.43;5.37;;;;;;;;;;5071375;28;20495;-77
2022/07/06 07:10:03;;;;;;;4.93;4.67;;;;;;;;;;5070727;28;22735;-75
2022/07/06 07:12:31;;;;;;;8.33;4.80;;;;;;;;;;5070560;28;20543;-76
2022/07/06 07:14:58;;;;;;;4.90;4.60;;;;;;;;;;5070361;28;20921;-76
2022/07/06 07:17:26;;;;;;;5.00;4.57;;;;;;;;;;5070655;28;20478;-76
2022/07/06 07:19:53;;;;;;;7.70;4.47;;;;;;;;;;5069537;28;20951;-76
2022/07/06 07:22:20;;;;;;;4.93;4.53;;;;;;;;;;5070714;28;20460;-75
2022/07/06 07:24:47;;;;;;;3.90;3.70;;;;;;;;;;5070250;28;20441;-75
2022/07/06 07:27:14;;;;;;;4.20;3.90;;;;;;;;;;5070546;28;21067;-76
2022/07/06 07:29:41;;;;;;;5.40;4.90;;;;;;;;;;5070774;28;20444;-75
2022/07/06 07:32:08;;;;;;;5.03;4.30;;;;;;;;;;5070126;28;20492;-75
2022/07/06 07:34:36;;;;;;;5.23;4.83;;;;;;;;;;5070153;28;20510;-77
2022/07/06 07:37:04;;;;;;;6.20;4.10;;;;;;;;;;5070556;28;20506;-77
2022/07/06 07:39:31;;;;;;;4.73;4.43;;;;;;;;;;5070336;28;20943;-75
2022/07/06 07:41:58;;;;;;;5.30;4.80;;;;;;;;;;5070768;28;20514;-77
2022/07/06 07:44:27;;;;;;;4.60;4.27;;;;;;;;;;5070218;28;20498;-76
2022/07/06 07:46:54;;;;;;;6.17;4.20;;;;;;;;;;5070348;28;20445;-76
2022/07/06 07:49:21;;;;;;;10.20;4.37;;;;;;;;;;5070533;28;20449;-77
2022/07/06 07:51:49;;;;;;;6.20;4.50;;;;;;;;;;5070548;28;20491;-76
2022/07/06 07:54:16;;;;;;;6.60;4.67;;;;;;;;;;5070161;28;20566;-74
2022/07/06 07:56:44;;;;;;;5.53;5.03;;;;;;;;;;5070165;28;20482;-76
2022/07/06 07:59:11;;;;;;;4.87;4.40;;;;;;;;;;5071013;28;20908;-76
2022/07/06 08:01:38;;;;;;;5.50;4.70;;;;;;;;;;5070650;28;20522;-76
2022/07/06 08:04:05;;;;;;;4.37;4.07;;;;;;;;;;5069996;28;20494;-76
2022/07/06 08:06:32;;;;;;;6.40;4.20;;;;;;;;;;5070221;28;20474;-75
2022/07/06 08:09:03;;;;;;;5.30;4.90;;;;;;;;;;5069602;28;20962;-76
2022/07/06 08:11:30;;;;;;;5.90;4.50;;;;;;;;;;5069962;28;20512;-76
2022/07/06 08:13:57;;;;;;;5.20;4.70;;;;;;;;;;5069880;28;20444;-76
2022/07/06 08:16:24;;;;;;;8.03;4.30;;;;;;;;;;5069997;28;20474;-78
2022/07/06 08:18:51;;;;;;;4.63;4.33;;;;;;;;;;5062122;28;20450;-75
2022/07/06 08:21:18;;;;;;;4.90;4.60;;;;;;;;;;5041827;28;20441;-75
2022/07/06 08:23:45;;;;;;;5.00;4.30;;;;;;;;;;5062151;28;20453;-76
2022/07/06 08:26:14;;;;;;;4.13;3.83;;;;;;;;;;5070206;28;20494;-75
2022/07/06 08:28:41;;;;;;;4.93;4.10;;;;;;;;;;5051768;28;20442;-75
2022/07/06 08:31:08;;;;;;;4.67;4.30;;;;;;;;;;5047192;28;20971;-76
2022/07/06 08:33:35;;;;;;;7.63;4.80;;;;;;;;;;5059206;28;20482;-76
2022/07/06 08:36:02;;;;;;;4.90;4.47;;;;;;;;;;5079942;28;20440;-76
2022/07/06 08:38:29;;;;;;;5.67;3.87;;;;;;;;;;5078345;28;20490;-76
2022/07/06 08:40:56;;;;;;;4.37;4.07;;;;;;;;;;5069159;28;20441;-77
2022/07/06 08:43:24;;;;;;;6.07;3.97;;;;;;;;;;5073055;28;20460;-77
2022/07/06 08:45:54;;;;;;;5.13;4.73;;;;;;;;;;5073424;28;20455;-76
2022/07/06 08:48:22;;;;;;;4.80;4.40;;;;;;;;;;5063189;28;20469;-75
2022/07/06 08:50:50;;;;;;;4.50;4.10;;;;;;;;;;5054587;28;20507;-76
2022/07/06 08:53:17;;;;;;;4.50;4.10;;;;;;;;;;5053942;28;20544;-75
2022/07/06 08:55:45;;;;;;;4.83;4.43;;;;;;;;;;5054426;28;20469;-75
2022/07/06 08:58:13;;;;;;;4.00;3.70;;;;;;;;;;5054579;28;20495;-76
2022/07/06 09:00:42;;;;;;;5.30;4.80;;;;;;;;;;5054752;28;20441;-74
2022/07/06 09:03:12;;;;;;;5.10;4.60;;;;;;;;;;5053893;28;20527;-76
2022/07/06 09:05:41;;;;;;;5.00;4.47;;;;;;;;;;5054482;28;20503;-75
2022/07/06 09:08:08;;;;;;;5.00;4.50;;;;;;;;;;5054196;28;20441;-75
2022/07/06 09:10:35;;;;;;;4.03;3.73;;;;;;;;;;5054205;28;20866;-75
2022/07/06 09:13:05;;;;;;;4.27;3.93;;;;;;;;;;5053601;28;20462;-75
2022/07/06 09:15:32;;;;;;;4.60;4.20;;;;;;;;;;5053561;28;20790;-75
2022/07/06 09:18:01;;;;;;;5.60;3.50;;;;;;;;;;5054178;28;20442;-76
2022/07/06 09:20:28;;;;;;;6.50;4.37;;;;;;;;;;5053387;28;20460;-76
2022/07/06 09:22:59;;;;;;;5.90;4.23;;;;;;;;;;5065308;28;20469;-76
2022/07/06 09:25:26;;;;;;;5.20;4.70;;;;;;;;;;5073607;28;21001;-76
2022/07/06 09:27:55;;;;;;;4.50;4.00;;;;;;;;;;5074452;28;20444;-75
2022/07/06 09:30:22;;;;;;;3.80;3.60;;;;;;;;;;5074245;28;20560;-75
2022/07/06 09:32:50;;;;;;;8.80;4.23;;;;;;;;;;5073961;28;20488;-76
2022/07/06 09:35:23;;;;;;;4.03;3.67;;;;;;;;;;5074479;28;20527;-76
2022/07/06 09:38:01;;;;;;;5.27;4.60;;;;;;;;;;5074121;28;20489;-76
2022/07/06 09:40:28;;;;;;;5.20;4.00;;;;;;;;;;5074379;28;20417;-76
2022/07/06 09:43:08;;;;;;;4.30;3.60;;;;;;;;;;5072842;28;20543;-76
2022/07/06 09:45:36;;;;;;;4.73;4.30;;;;;;;;;;5074951;28;20494;-75
2022/07/06 09:48:07;;;;;;;3.90;3.60;;;;;;;;;;5074075;28;20445;-78
2022/07/06 09:50:40;;;;;;;5.33;4.17;;;;;;;;;;5076114;28;20510;-76
2022/07/06 09:53:07;;;;;;;3.93;3.47;;;;;;;;;;5078684;28;20449;-75
2022/07/06 09:55:34;;;;;;;8.90;3.87;;;;;;;;;;5080117;28;20836;-76
2022/07/06 09:58:01;;;;;;;6.60;4.10;;;;;;;;;;5081304;28;20536;-74
2022/07/06 10:00:29;;;;;;;4.03;3.63;;;;;;;;;;5081733;28;20433;-74
2022/07/06 10:02:56;;;;;;;4.97;4.20;;;;;;;;;;5081481;28;21025;-75
2022/07/06 10:05:26;;;;;;;7.20;4.87;;;;;;;;;;5074625;28;20490;-75
2022/07/06 10:07:57;;;;;;;5.93;4.50;;;;;;;;;;5076286;28;20481;-74
2022/07/06 10:10:25;;;;;;;4.10;3.80;;;;;;;;;;5054848;28;20916;-75
2022/07/06 10:12:53;;;;;;;6.00;4.00;;;;;;;;;;5053290;28;20481;-76
2022/07/06 10:15:20;;;;;;;6.70;4.10;;;;;;;;;;5053281;28;20449;-74
2022/07/06 10:17:48;;;;;;;4.90;4.43;;;;;;;;;;5053090;28;20857;-75
2022/07/06 10:20:15;;;;;;;3.53;3.23;;;;;;;;;;5052568;28;20492;-75
2022/07/06 10:22:42;;;;;;;7.83;3.73;;;;;;;;;;5052675;28;20461;-76
2022/07/06 10:25:11;;;;;;;4.60;3.90;;;;;;;;;;5053288;28;20956;-75
2022/07/06 10:27:39;;;;;;;4.27;3.97;;;;;;;;;;5058275;28;20441;-75
2022/07/06 10:30:06;;;;;;;3.90;3.43;;;;;;;;;;5054044;28;20445;-77
2022/07/06 10:32:34;;;;;;;5.50;3.30;;;;;;;;;;5051941;28;20485;-75
2022/07/06 10:35:01;;;;;;;7.73;3.60;;;;;;;;;;5053135;28;20530;-75
2022/07/06 10:37:28;;;;;;;6.27;3.63;;;;;;;;;;5052916;28;20467;-76
2022/07/06 10:42:42;;;;;;;3.70;3.43;;;;;;;;;;5050130;28;20476;-75
2022/07/06 10:45:10;;;;;;;4.73;3.80;;;;;;;;;;5052271;28;20998;-77
2022/07/06 10:47:37;;;;;;;4.30;3.47;;;;;;;;;;5052179;28;20457;-75
2022/07/06 10:50:05;;;;;;;3.93;3.53;;;;;;;;;;5036138;28;20450;-77
2022/07/06 10:52:51;;;;;;;5.93;4.20;;;;;;;;;;5052759;28;20993;-76
2022/07/06 10:55:31;;;;;;;5.10;4.60;;;;;;;;;;5052606;28;20449;-76
2022/07/06 10:58:00;;;;;;;4.47;3.60;;;;;;;;;;5051465;28;20583;-77
2022/07/06 11:00:27;;;;;;;4.83;3.90;;;;;;;;;;5051103;28;20444;-75
2022/07/06 11:02:54;;;;;;;4.70;4.30;;;;;;;;;;5051163;28;20866;-75
2022/07/06 11:05:39;;;;;;;4.60;4.20;;;;;;;;;;5051843;28;20495;-76
2022/07/06 11:08:07;;;;;;;6.53;4.57;;;;;;;;;;5051887;28;20441;-75
2022/07/06 11:10:47;;;;;;;4.20;3.77;;;;;;;;;;5052363;28;20492;-76
2022/07/06 11:13:27;;;;;;;4.20;3.80;;;;;;;;;;5051482;28;20477;-75
2022/07/06 11:16:02;;;;;;;4.60;4.20;;;;;;;;;;5051116;28;20532;-76
2022/07/06 11:18:29;;;;;;;11.13;4.23;;;;;;;;;;5053463;28;20443;-75
2022/07/06 11:21:16;;;;;;;4.50;4.20;;;;;;;;;;5072330;28;20432;-75
2022/07/06 11:23:46;;;;;;;4.83;4.27;;;;;;;;;;5068139;28;20437;-76
2022/07/06 11:26:13;;;;;;;5.80;3.70;;;;;;;;;;5068452;28;20450;-77
2022/07/06 11:28:42;;;;;;;4.03;3.73;;;;;;;;;;5071820;28;20517;-77
2022/07/06 11:31:09;;;;;;;3.70;3.37;;;;;;;;;;5071891;28;20442;-76
2022/07/06 11:33:36;;;;;;;4.40;3.20;;;;;;;;;;5071622;28;21017;-74
2022/07/06 11:36:13;;;;;;;5.03;4.03;;;;;;;;;;5072257;28;20494;-76
2022/07/06 11:38:40;;;;;;;4.83;3.30;;;;;;;;;;5072308;28;20858;-77
2022/07/06 11:41:07;;;;;;;4.50;3.70;;;;;;;;;;5072355;28;20440;-77
2022/07/06 11:43:34;;;;;;;5.77;3.60;;;;;;;;;;5071462;28;20440;-75
2022/07/06 11:46:02;;;;;;;8.53;3.77;;;;;;;;;;5071844;28;20444;-76
2022/07/06 11:48:29;;;;;;;6.27;4.03;;;;;;;;;;5071953;28;20441;-76
2022/07/06 11:51:00;;;;;;;4.33;3.33;;;;;;;;;;5072310;28;20448;-76
2022/07/06 11:53:27;;;;;;;5.20;4.70;;;;;;;;;;5071093;28;20476;-75
2022/07/06 11:55:54;;;;;;;4.57;4.17;;;;;;;;;;5071955;28;20440;-75
2022/07/06 11:58:22;;;;;;;5.20;3.57;;;;;;;;;;5071960;28;20994;-75
2022/07/06 12:03:43;;;;;;;4.50;3.60;;;;;;;;;;5089234;28;20518;-74
2022/07/06 12:06:17;;;;;;;6.07;4.53;;;;;;;;;;5089362;28;20489;-75
2022/07/06 12:08:46;;;;;;;4.97;4.30;;;;;;;;;;5089053;28;20867;-76
2022/07/06 12:11:18;;;;;;;3.80;3.60;;;;;;;;;;5087621;28;20955;-75
2022/07/06 12:13:45;;;;;;;5.83;4.57;;;;;;;;;;5069184;28;20853;-75
2022/07/06 12:16:12;;;;;;;4.83;3.80;;;;;;;;;;5069772;28;20467;-77
2022/07/06 12:18:40;;;;;;;6.17;3.93;;;;;;;;;;5069130;28;20433;-76
2022/07/06 12:21:10;;;;;;;6.67;4.63;;;;;;;;;;5068122;28;20437;-75
2022/07/06 12:23:41;;;;;;;5.70;5.20;;;;;;;;;;5068623;28;20522;-76
2022/07/06 12:26:08;;;;;;;4.30;3.70;;;;;;;;;;5072198;28;20508;-76
2022/07/06 12:28:35;;;;;;;5.03;4.50;;;;;;;;;;5072462;28;20532;-75
2022/07/06 12:31:02;;;;;;;6.20;3.73;;;;;;;;;;5069946;28;20445;-75
2022/07/06 12:33:30;;;;;;;5.70;3.70;;;;;;;;;;5069245;28;20551;-76
2022/07/06 12:35:58;;;;;;;4.40;3.90;;;;;;;;;;5069876;28;20436;-74
2022/07/06 12:38:27;;;;;;;3.93;3.63;;;;;;;;;;5069748;28;20451;-76
2022/07/06 12:40:54;;;;;;;4.57;3.83;;;;;;;;;;5069943;28;20452;-76
2022/07/06 12:43:37;;;;;;;6.30;3.80;;;;;;;;;;5071968;28;20875;-76
2022/07/06 12:46:19;;;;;;;3.73;3.47;;;;;;;;;;5069266;28;20453;-75
2022/07/06 12:48:52;;;;;;;4.27;3.97;;;;;;;;;;5069655;28;20459;-76
2022/07/06 12:51:19;;;;;;;3.93;3.63;;;;;;;;;;5069380;28;20487;-75
2022/07/06 12:53:47;;;;;;;4.10;3.70;;;;;;;;;;5069848;28;20936;-75
2022/07/06 12:56:15;;;;;;;4.50;4.20;;;;;;;;;;5069295;28;20436;-74
2022/07/06 12:58:55;;;;;;;6.37;3.57;;;;;;;;;;5069018;28;20471;-73
2022/07/06 13:01:22;;;;;;;3.83;3.07;;;;;;;;;;5069218;28;20499;-76
2022/07/06 13:03:54;;;;;;;4.60;3.43;;;;;;;;;;5069173;28;20510;-75
2022/07/06 13:06:28;;;;;;;3.57;3.23;;;;;;;;;;5069549;28;20837;-76
2022/07/06 13:08:56;;;;;;;6.77;2.80;;;;;;;;;;5068967;28;20445;-76
2022/07/06 13:11:23;;;;;;;4.23;3.23;;;;;;;;;;5069088;28;20816;-75
2022/07/06 13:13:50;;;;;;;3.43;3.10;;;;;;;;;;5062844;28;20437;-75
2022/07/06 13:16:17;;;;;;;4.47;4.07;;;;;;;;;;5064972;28;20437;-75
2022/07/06 13:18:44;;;;;;;5.23;3.17;;;;;;;;;;5061844;28;20472;-75
2022/07/06 13:21:12;;;;;;;3.20;2.90;;;;;;;;;;5056021;28;20519;-76
2022/07/06 13:23:39;;;;;;;4.37;3.23;;;;;;;;;;5055860;28;20481;-74
2022/07/06 13:26:07;;;;;;;3.57;3.27;;;;;;;;;;5055468;28;20808;-75
2022/07/06 13:28:34;;;;;;;3.33;3.00;;;;;;;;;;5056432;28;20446;-75
2022/07/06 13:31:01;;;;;;;3.73;3.30;;;;;;;;;;5055168;28;20500;-75
2022/07/06 13:33:28;;;;;;;3.90;3.43;;;;;;;;;;5054746;28;20433;-76
2022/07/06 13:35:55;;;;;;;5.90;3.20;;;;;;;;;;5055085;28;20851;-76
2022/07/06 13:38:22;;;;;;;3.93;3.70;;;;;;;;;;5055569;28;20437;-76
2022/07/06 13:40:50;;;;;;;3.20;2.90;;;;;;;;;;5055634;28;20471;-76
2022/07/06 13:43:18;;;;;;;8.83;3.07;;;;;;;;;;5055302;28;20485;-75
2022/07/06 13:45:45;;;;;;;5.40;2.87;;;;;;;;;;5055351;28;20738;-76
2022/07/06 13:48:12;;;;;;;3.80;3.50;;;;;;;;;;5055526;28;20441;-76
2022/07/06 13:50:39;;;;;;;3.47;2.87;;;;;;;;;;5055536;28;20468;-75
2022/07/06 13:53:06;;;;;;;4.10;3.70;;;;;;;;;;5057969;28;20472;-75
2022/07/06 13:55:34;;;;;;;3.73;3.23;;;;;;;;;;5063655;28;20487;-76
2022/07/06 13:58:01;;;;;;;3.07;2.87;;;;;;;;;;5061421;28;20446;-77
2022/07/06 14:00:30;;;;;;;3.60;2.93;;;;;;;;;;5054785;28;20511;-76
2022/07/06 14:02:57;;;;;;;3.10;2.90;;;;;;;;;;5055014;28;20480;-76
2022/07/06 14:05:24;;;;;;;3.40;3.10;;;;;;;;;;5054292;28;20465;-75
2022/07/06 14:07:51;;;;;;;5.43;3.10;;;;;;;;;;5053605;28;20472;-75
2022/07/06 14:10:18;;;;;;;3.17;2.87;;;;;;;;;;5035358;28;20449;-76
2022/07/06 14:12:45;;;;;;;4.60;2.87;;;;;;;;;;5032750;28;20458;-75
2022/07/06 14:15:12;;;;;;;3.33;3.03;;;;;;;;;;5032914;28;20478;-75
2022/07/06 14:17:41;;;;;;;2.70;2.60;;;;;;;;;;5032614;28;20453;-77
2022/07/06 14:20:08;;;;;;;3.27;2.80;;;;;;;;;;5032873;28;20442;-75
2022/07/06 14:22:35;;;;;;;6.60;2.60;;;;;;;;;;5032724;28;20914;-77
2022/07/06 14:25:02;;;;;;;2.80;2.60;;;;;;;;;;5032376;28;20442;-75
2022/07/06 14:27:29;;;;;;;2.43;2.33;;;;;;;;;;5032971;28;20446;-77
2022/07/06 14:29:56;;;;;;;2.73;2.53;;;;;;;;;;5032767;28;20516;-75
2022/07/06 14:32:23;;;;;;;2.77;2.57;;;;;;;;;;5032800;28;20462;-77
2022/07/06 14:34:51;;;;;;;4.23;3.03;;;;;;;;;;5032907;28;20442;-76
2022/07/06 14:37:19;;;;;;;3.10;2.90;;;;;;;;;;5033207;28;20577;-75
2022/07/06 14:39:46;;;;;;;2.63;2.53;;;;;;;;;;5033210;28;20450;-75
2022/07/06 14:42:13;;;;;;;3.20;2.90;;;;;;;;;;5032819;28;20466;-76
2022/07/06 14:44:40;;;;;;;2.70;2.50;;;;;;;;;;5032287;28;20446;-76
2022/07/06 14:47:07;;;;;;;2.80;2.50;;;;;;;;;;5032764;28;20455;-76
2022/07/06 14:49:34;;;;;;;4.40;2.80;;;;;;;;;;5033225;28;20773;-77
2022/07/06 14:52:02;;;;;;;3.33;3.03;;;;;;;;;;5032995;28;20462;-77
2022/07/06 14:54:29;;;;;;;3.20;2.90;;;;;;;;;;5032299;28;20438;-77
2022/07/06 14:56:56;;;;;;;2.70;2.60;;;;;;;;;;5032706;28;20439;-76